sensor_id;sensor_type;location;lat;lon;timestamp;pressure;altitude;pressure_sealevel;temperature;humidity
20930;BME280;21895;47.072;15.132;2023-02-11T00:01:24;98642.00;;;-4.82;67.44
20930;BME280;21895;47.072;15.132;2023-02-11T00:03:52;98641.00;;;-4.92;67.42
20930;BME280;21895;47.072;15.132;2023-02-11T00:06:19;98634.00;;;-4.80;67.79
20930;BME280;21895;47.072;15.132;2023-02-11T00:08:46;98630.00;;;-4.92;67.02
20930;BME280;21895;47.072;15.132;2023-02-11T00:11:18;98627.00;;;-5.08;66.37
20930;BME280;21895;47.072;15.132;2023-02-11T00:13:46;98621.00;;;-5.18;66.06
20930;BME280;21895;47.072;15.132;2023-02-11T00:16:16;98616.00;;;-5.43;66.97
20930;BME280;21895;47.072;15.132;2023-02-11T00:18:43;98619.00;;;-5.41;67.37
20930;BME280;21895;47.072;15.132;2023-02-11T00:21:14;98624.00;;;-5.41;67.58
20930;BME280;21895;47.072;15.132;2023-02-11T00:23:41;98620.00;;;-5.39;67.72
20930;BME280;21895;47.072;15.132;2023-02-11T00:26:24;98614.00;;;-5.13;67.49
20930;BME280;21895;47.072;15.132;2023-02-11T00:28:51;98608.00;;;-5.23;66.96
20930;BME280;21895;47.072;15.132;2023-02-11T00:31:21;98603.00;;;-5.26;66.82
20930;BME280;21895;47.072;15.132;2023-02-11T00:33:49;98604.00;;;-5.25;67.14
20930;BME280;21895;47.072;15.132;2023-02-11T00:36:25;98605.00;;;-5.31;67.84
20930;BME280;21895;47.072;15.132;2023-02-11T00:38:55;98611.00;;;-5.14;68.20
20930;BME280;21895;47.072;15.132;2023-02-11T00:41:22;98614.00;;;-5.19;67.45
20930;BME280;21895;47.072;15.132;2023-02-11T00:43:49;98607.00;;;-5.26;67.08
20930;BME280;21895;47.072;15.132;2023-02-11T00:46:16;98605.00;;;-5.37;67.18
20930;BME280;21895;47.072;15.132;2023-02-11T00:48:43;98601.00;;;-5.33;67.04
20930;BME280;21895;47.072;15.132;2023-02-11T00:51:10;98603.00;;;-5.29;66.89
20930;BME280;21895;47.072;15.132;2023-02-11T00:53:37;98599.00;;;-5.38;67.44
20930;BME280;21895;47.072;15.132;2023-02-11T00:56:04;98605.00;;;-5.23;67.71
20930;BME280;21895;47.072;15.132;2023-02-11T00:58:31;98596.00;;;-5.11;67.47
20930;BME280;21895;47.072;15.132;2023-02-11T01:00:57;98601.00;;;-5.22;66.89
20930;BME280;21895;47.072;15.132;2023-02-11T01:03:24;98593.00;;;-5.27;66.82
20930;BME280;21895;47.072;15.132;2023-02-11T01:05:51;98589.00;;;-5.34;67.40
20930;BME280;21895;47.072;15.132;2023-02-11T01:08:18;98584.00;;;-5.37;68.12
20930;BME280;21895;47.072;15.132;2023-02-11T01:10:53;98589.00;;;-5.22;68.08
20930;BME280;21895;47.072;15.132;2023-02-11T01:13:20;98588.00;;;-5.16;67.37
20930;BME280;21895;47.072;15.132;2023-02-11T01:15:46;98574.00;;;-5.16;67.16
20930;BME280;21895;47.072;15.132;2023-02-11T01:18:13;98570.00;;;-5.33;67.04
20930;BME280;21895;47.072;15.132;2023-02-11T01:20:39;98569.00;;;-5.37;67.22
20930;BME280;21895;47.072;15.132;2023-02-11T01:23:06;98561.00;;;-5.34;67.00
20930;BME280;21895;47.072;15.132;2023-02-11T01:25:32;98554.00;;;-5.40;67.34
20930;BME280;21895;47.072;15.132;2023-02-11T01:27:59;98558.00;;;-5.44;67.23
20930;BME280;21895;47.072;15.132;2023-02-11T01:30:25;98551.00;;;-5.45;68.06
20930;BME280;21895;47.072;15.132;2023-02-11T01:32:52;98546.00;;;-5.40;68.56
20930;BME280;21895;47.072;15.132;2023-02-11T01:35:18;98541.00;;;-5.32;68.27
20930;BME280;21895;47.072;15.132;2023-02-11T01:37:45;98547.00;;;-5.35;67.77
20930;BME280;21895;47.072;15.132;2023-02-11T01:40:15;98540.00;;;-5.29;67.74
20930;BME280;21895;47.072;15.132;2023-02-11T01:42:42;98531.00;;;-5.24;67.66
20930;BME280;21895;47.072;15.132;2023-02-11T01:45:59;98514.00;;;-5.31;67.08
20930;BME280;21895;47.072;15.132;2023-02-11T01:48:40;98513.00;;;-5.38;66.87
20930;BME280;21895;47.072;15.132;2023-02-11T01:51:17;98502.00;;;-5.30;66.97
20930;BME280;21895;47.072;15.132;2023-02-11T01:53:47;98499.00;;;-5.37;66.87
20930;BME280;21895;47.072;15.132;2023-02-11T01:56:38;98510.00;;;-5.48;67.05
20930;BME280;21895;47.072;15.132;2023-02-11T01:59:46;98510.00;;;-5.46;66.95
20930;BME280;21895;47.072;15.132;2023-02-11T02:02:18;98506.00;;;-5.61;66.98
20930;BME280;21895;47.072;15.132;2023-02-11T02:04:59;98500.00;;;-5.69;67.83
20930;BME280;21895;47.072;15.132;2023-02-11T02:07:38;98500.00;;;-5.57;68.35
20930;BME280;21895;47.072;15.132;2023-02-11T02:10:18;98503.00;;;-5.39;67.82
20930;BME280;21895;47.072;15.132;2023-02-11T02:12:46;98495.00;;;-5.50;67.95
20930;BME280;21895;47.072;15.132;2023-02-11T02:15:26;98505.00;;;-5.46;68.61
20930;BME280;21895;47.072;15.132;2023-02-11T02:35:06;98494.00;;;-5.41;68.26
20930;BME280;21895;47.072;15.132;2023-02-11T02:37:53;98495.00;;;-5.22;67.21
20930;BME280;21895;47.072;15.132;2023-02-11T02:40:42;98486.00;;;-5.55;66.76
20930;BME280;21895;47.072;15.132;2023-02-11T02:43:11;98482.00;;;-5.77;67.88
20930;BME280;21895;47.072;15.132;2023-02-11T02:45:39;98490.00;;;-5.80;67.87
20930;BME280;21895;47.072;15.132;2023-02-11T02:48:06;98488.00;;;-5.65;68.31
20930;BME280;21895;47.072;15.132;2023-02-11T02:50:35;98487.00;;;-5.63;68.00
20930;BME280;21895;47.072;15.132;2023-02-11T02:53:31;98486.00;;;-5.53;67.04
20930;BME280;21895;47.072;15.132;2023-02-11T02:56:21;98478.00;;;-5.80;66.09
20930;BME280;21895;47.072;15.132;2023-02-11T03:03:34;98483.00;;;-5.92;66.17
20930;BME280;21895;47.072;15.132;2023-02-11T03:06:48;98468.00;;;-5.59;69.66
20930;BME280;21895;47.072;15.132;2023-02-11T03:10:12;98473.00;;;-5.54;69.69
20930;BME280;21895;47.072;15.132;2023-02-11T03:12:43;98473.00;;;-5.54;69.56
20930;BME280;21895;47.072;15.132;2023-02-11T03:15:12;98469.00;;;-5.67;69.20
20930;BME280;21895;47.072;15.132;2023-02-11T03:17:47;98469.00;;;-5.61;68.77
20930;BME280;21895;47.072;15.132;2023-02-11T03:20:19;98469.00;;;-5.73;68.36
20930;BME280;21895;47.072;15.132;2023-02-11T03:23:28;98469.00;;;-5.82;68.58
20930;BME280;21895;47.072;15.132;2023-02-11T03:26:29;98462.00;;;-5.72;67.74
20930;BME280;21895;47.072;15.132;2023-02-11T03:31:31;98453.00;;;-5.85;68.54
20930;BME280;21895;47.072;15.132;2023-02-11T03:34:35;98457.00;;;-5.75;67.40
20930;BME280;21895;47.072;15.132;2023-02-11T03:38:43;98457.00;;;-6.22;67.30
20930;BME280;21895;47.072;15.132;2023-02-11T03:41:13;98447.00;;;-6.24;68.00
20930;BME280;21895;47.072;15.132;2023-02-11T03:43:47;98447.00;;;-6.24;67.58
20930;BME280;21895;47.072;15.132;2023-02-11T03:46:20;98441.00;;;-6.25;67.87
20930;BME280;21895;47.072;15.132;2023-02-11T03:48:52;98435.00;;;-6.14;68.24
20930;BME280;21895;47.072;15.132;2023-02-11T03:51:22;98427.00;;;-6.14;68.41
20930;BME280;21895;47.072;15.132;2023-02-11T03:53:54;98426.00;;;-6.13;69.87
20930;BME280;21895;47.072;15.132;2023-02-11T03:56:26;98423.00;;;-5.97;69.64
20930;BME280;21895;47.072;15.132;2023-02-11T03:58:54;98420.00;;;-5.87;69.03
20930;BME280;21895;47.072;15.132;2023-02-11T04:01:21;98425.00;;;-5.80;68.62
20930;BME280;21895;47.072;15.132;2023-02-11T04:03:47;98422.00;;;-5.85;68.43
20930;BME280;21895;47.072;15.132;2023-02-11T04:06:14;98427.00;;;-5.73;68.15
20930;BME280;21895;47.072;15.132;2023-02-11T04:08:40;98420.00;;;-5.81;68.64
20930;BME280;21895;47.072;15.132;2023-02-11T04:11:07;98420.00;;;-5.66;68.40
20930;BME280;21895;47.072;15.132;2023-02-11T04:13:34;98419.00;;;-5.77;67.87
20930;BME280;21895;47.072;15.132;2023-02-11T04:16:00;98415.00;;;-5.78;68.41
20930;BME280;21895;47.072;15.132;2023-02-11T04:18:27;98411.00;;;-5.71;67.12
20930;BME280;21895;47.072;15.132;2023-02-11T04:20:53;98414.00;;;-5.97;66.22
20930;BME280;21895;47.072;15.132;2023-02-11T04:23:20;98411.00;;;-6.30;67.18
20930;BME280;21895;47.072;15.132;2023-02-11T04:25:47;98418.00;;;-6.30;67.83
20930;BME280;21895;47.072;15.132;2023-02-11T04:28:14;98414.00;;;-6.24;67.59
20930;BME280;21895;47.072;15.132;2023-02-11T04:30:40;98406.00;;;-6.27;67.84
20930;BME280;21895;47.072;15.132;2023-02-11T04:33:07;98402.00;;;-6.22;68.24
20930;BME280;21895;47.072;15.132;2023-02-11T04:35:33;98406.00;;;-6.11;68.15
20930;BME280;21895;47.072;15.132;2023-02-11T04:38:00;98407.00;;;-6.08;67.95
20930;BME280;21895;47.072;15.132;2023-02-11T04:40:26;98406.00;;;-6.09;67.10
20930;BME280;21895;47.072;15.132;2023-02-11T04:42:53;98393.00;;;-6.17;67.02
20930;BME280;21895;47.072;15.132;2023-02-11T04:45:19;98400.00;;;-6.32;67.89
20930;BME280;21895;47.072;15.132;2023-02-11T04:47:46;98394.00;;;-6.26;68.45
20930;BME280;21895;47.072;15.132;2023-02-11T04:50:12;98399.00;;;-6.09;69.20
20930;BME280;21895;47.072;15.132;2023-02-11T04:52:39;98397.00;;;-5.98;68.25
20930;BME280;21895;47.072;15.132;2023-02-11T04:55:06;98388.00;;;-6.14;67.69
20930;BME280;21895;47.072;15.132;2023-02-11T04:57:32;98383.00;;;-6.20;67.64
20930;BME280;21895;47.072;15.132;2023-02-11T04:59:59;98389.00;;;-6.21;67.68
20930;BME280;21895;47.072;15.132;2023-02-11T05:02:25;98376.00;;;-6.19;68.45
20930;BME280;21895;47.072;15.132;2023-02-11T05:04:52;98369.00;;;-5.95;68.38
20930;BME280;21895;47.072;15.132;2023-02-11T05:07:18;98376.00;;;-5.94;67.36
20930;BME280;21895;47.072;15.132;2023-02-11T05:09:45;98373.00;;;-5.93;67.36
20930;BME280;21895;47.072;15.132;2023-02-11T05:12:11;98375.00;;;-5.89;68.51
20930;BME280;21895;47.072;15.132;2023-02-11T05:14:38;98365.00;;;-5.80;68.75
20930;BME280;21895;47.072;15.132;2023-02-11T05:17:04;98354.00;;;-5.59;69.44
20930;BME280;21895;47.072;15.132;2023-02-11T05:19:31;98364.00;;;-5.46;69.45
20930;BME280;21895;47.072;15.132;2023-02-11T05:21:58;98359.00;;;-5.54;69.49
20930;BME280;21895;47.072;15.132;2023-02-11T05:24:31;98363.00;;;-5.60;68.71
20930;BME280;21895;47.072;15.132;2023-02-11T05:26:57;98363.00;;;-5.56;68.09
20930;BME280;21895;47.072;15.132;2023-02-11T05:29:24;98366.00;;;-5.53;67.88
20930;BME280;21895;47.072;15.132;2023-02-11T05:31:51;98356.00;;;-5.48;67.67
20930;BME280;21895;47.072;15.132;2023-02-11T05:34:17;98359.00;;;-5.70;66.93
20930;BME280;21895;47.072;15.132;2023-02-11T05:36:44;98359.00;;;-5.73;67.03
20930;BME280;21895;47.072;15.132;2023-02-11T05:39:10;98361.00;;;-5.67;67.23
20930;BME280;21895;47.072;15.132;2023-02-11T05:41:37;98371.00;;;-5.50;66.83
20930;BME280;21895;47.072;15.132;2023-02-11T05:44:03;98359.00;;;-5.69;66.59
20930;BME280;21895;47.072;15.132;2023-02-11T05:46:30;98365.00;;;-5.87;66.37
20930;BME280;21895;47.072;15.132;2023-02-11T05:48:56;98358.00;;;-5.95;66.21
20930;BME280;21895;47.072;15.132;2023-02-11T05:51:23;98360.00;;;-6.10;66.32
20930;BME280;21895;47.072;15.132;2023-02-11T05:53:50;98369.00;;;-6.17;66.96
20930;BME280;21895;47.072;15.132;2023-02-11T05:56:16;98370.00;;;-6.12;67.17
20930;BME280;21895;47.072;15.132;2023-02-11T05:58:43;98367.00;;;-6.14;67.79
20930;BME280;21895;47.072;15.132;2023-02-11T06:01:09;98355.00;;;-6.10;68.86
20930;BME280;21895;47.072;15.132;2023-02-11T06:03:36;98353.00;;;-5.86;68.97
20930;BME280;21895;47.072;15.132;2023-02-11T06:06:03;98361.00;;;-5.75;68.57
20930;BME280;21895;47.072;15.132;2023-02-11T06:08:30;98360.00;;;-5.74;68.64
20930;BME280;21895;47.072;15.132;2023-02-11T06:10:56;98353.00;;;-5.65;68.45
20930;BME280;21895;47.072;15.132;2023-02-11T06:13:23;98357.00;;;-5.60;67.27
20930;BME280;21895;47.072;15.132;2023-02-11T06:16:00;98347.00;;;-5.58;66.12
20930;BME280;21895;47.072;15.132;2023-02-11T06:18:27;98348.00;;;-5.81;65.76
20930;BME280;21895;47.072;15.132;2023-02-11T06:20:55;98346.00;;;-5.93;66.93
20930;BME280;21895;47.072;15.132;2023-02-11T06:23:22;98353.00;;;-5.77;67.37
20930;BME280;21895;47.072;15.132;2023-02-11T06:25:48;98356.00;;;-5.56;67.30
20930;BME280;21895;47.072;15.132;2023-02-11T06:28:15;98344.00;;;-5.60;67.55
20930;BME280;21895;47.072;15.132;2023-02-11T06:30:42;98342.00;;;-5.48;67.63
20930;BME280;21895;47.072;15.132;2023-02-11T06:33:09;98334.00;;;-5.34;67.83
20930;BME280;21895;47.072;15.132;2023-02-11T06:35:38;98336.00;;;-5.06;69.02
20930;BME280;21895;47.072;15.132;2023-02-11T06:38:04;98339.00;;;-4.82;69.12
20930;BME280;21895;47.072;15.132;2023-02-11T06:40:31;98345.00;;;-4.74;68.79
20930;BME280;21895;47.072;15.132;2023-02-11T06:42:57;98344.00;;;-4.65;68.25
20930;BME280;21895;47.072;15.132;2023-02-11T06:45:24;98338.00;;;-4.56;68.16
20930;BME280;21895;47.072;15.132;2023-02-11T06:47:51;98338.00;;;-4.41;67.84
20930;BME280;21895;47.072;15.132;2023-02-11T06:50:18;98345.00;;;-4.15;66.85
20930;BME280;21895;47.072;15.132;2023-02-11T06:52:44;98344.00;;;-4.16;67.33
20930;BME280;21895;47.072;15.132;2023-02-11T06:55:11;98349.00;;;-4.10;67.34
20930;BME280;21895;47.072;15.132;2023-02-11T06:57:37;98351.00;;;-3.92;67.46
20930;BME280;21895;47.072;15.132;2023-02-11T07:00:05;98361.00;;;-3.83;66.95
20930;BME280;21895;47.072;15.132;2023-02-11T07:02:31;98352.00;;;-3.58;66.57
20930;BME280;21895;47.072;15.132;2023-02-11T07:04:58;98358.00;;;-3.40;65.97
20930;BME280;21895;47.072;15.132;2023-02-11T07:07:24;98355.00;;;-3.32;65.34
20930;BME280;21895;47.072;15.132;2023-02-11T07:09:52;98364.00;;;-3.14;64.96
20930;BME280;21895;47.072;15.132;2023-02-11T07:12:18;98360.00;;;-3.09;64.35
20930;BME280;21895;47.072;15.132;2023-02-11T07:14:45;98355.00;;;-3.03;64.12
20930;BME280;21895;47.072;15.132;2023-02-11T07:17:11;98361.00;;;-3.01;63.88
20930;BME280;21895;47.072;15.132;2023-02-11T07:19:38;98359.00;;;-2.90;63.57
20930;BME280;21895;47.072;15.132;2023-02-11T07:22:04;98355.00;;;-2.83;63.52
20930;BME280;21895;47.072;15.132;2023-02-11T07:24:31;98360.00;;;-2.66;64.03
20930;BME280;21895;47.072;15.132;2023-02-11T07:26:57;98362.00;;;-2.52;64.37
20930;BME280;21895;47.072;15.132;2023-02-11T07:29:24;98362.00;;;-2.50;64.83
20930;BME280;21895;47.072;15.132;2023-02-11T07:31:50;98359.00;;;-2.42;64.78
20930;BME280;21895;47.072;15.132;2023-02-11T07:34:17;98354.00;;;-2.31;64.64
20930;BME280;21895;47.072;15.132;2023-02-11T07:36:44;98344.00;;;-2.23;64.52
20930;BME280;21895;47.072;15.132;2023-02-11T07:39:11;98353.00;;;-2.09;64.31
20930;BME280;21895;47.072;15.132;2023-02-11T07:41:37;98357.00;;;-1.98;63.90
20930;BME280;21895;47.072;15.132;2023-02-11T07:44:04;98349.00;;;-1.80;63.82
20930;BME280;21895;47.072;15.132;2023-02-11T07:46:31;98350.00;;;-1.63;64.05
20930;BME280;21895;47.072;15.132;2023-02-11T07:48:59;98350.00;;;-1.49;64.13
20930;BME280;21895;47.072;15.132;2023-02-11T07:51:30;98355.00;;;-1.26;63.53
20930;BME280;21895;47.072;15.132;2023-02-11T07:53:58;98346.00;;;-1.10;63.13
20930;BME280;21895;47.072;15.132;2023-02-11T07:56:27;98346.00;;;-0.92;61.97
20930;BME280;21895;47.072;15.132;2023-02-11T07:58:55;98343.00;;;-0.73;60.45
20930;BME280;21895;47.072;15.132;2023-02-11T08:01:24;98336.00;;;-0.53;60.21
20930;BME280;21895;47.072;15.132;2023-02-11T08:03:56;98343.00;;;-0.41;59.87
20930;BME280;21895;47.072;15.132;2023-02-11T08:06:27;98332.00;;;-0.25;59.38
20930;BME280;21895;47.072;15.132;2023-02-11T08:08:54;98321.00;;;-0.01;58.27
20930;BME280;21895;47.072;15.132;2023-02-11T08:11:24;98329.00;;;0.08;57.29
20930;BME280;21895;47.072;15.132;2023-02-11T08:13:52;98325.00;;;0.11;56.80
20930;BME280;21895;47.072;15.132;2023-02-11T08:16:29;98335.00;;;0.16;56.98
20930;BME280;21895;47.072;15.132;2023-02-11T08:18:59;98323.00;;;0.34;56.47
20930;BME280;21895;47.072;15.132;2023-02-11T08:21:26;98327.00;;;0.51;56.29
20930;BME280;21895;47.072;15.132;2023-02-11T08:23:53;98326.00;;;0.82;56.17
20930;BME280;21895;47.072;15.132;2023-02-11T08:26:27;98322.00;;;0.88;55.84
20930;BME280;21895;47.072;15.132;2023-02-11T08:28:55;98319.00;;;1.15;55.50
20930;BME280;21895;47.072;15.132;2023-02-11T08:31:31;98312.00;;;1.33;55.67
20930;BME280;21895;47.072;15.132;2023-02-11T08:33:59;98309.00;;;1.64;54.81
20930;BME280;21895;47.072;15.132;2023-02-11T08:36:31;98314.00;;;2.01;53.92
20930;BME280;21895;47.072;15.132;2023-02-11T08:39:00;98321.00;;;2.22;53.44
20930;BME280;21895;47.072;15.132;2023-02-11T08:41:51;98312.00;;;2.58;52.84
20930;BME280;21895;47.072;15.132;2023-02-11T08:44:19;98310.00;;;2.66;51.84
20930;BME280;21895;47.072;15.132;2023-02-11T08:46:47;98320.00;;;2.90;50.75
20930;BME280;21895;47.072;15.132;2023-02-11T08:49:14;98313.00;;;2.87;51.76
20930;BME280;21895;47.072;15.132;2023-02-11T08:51:41;98311.00;;;3.09;51.11
20930;BME280;21895;47.072;15.132;2023-02-11T08:54:08;98310.00;;;3.26;50.26
20930;BME280;21895;47.072;15.132;2023-02-11T08:56:36;98322.00;;;3.32;50.80
20930;BME280;21895;47.072;15.132;2023-02-11T08:59:03;98309.00;;;3.12;52.03
20930;BME280;21895;47.072;15.132;2023-02-11T09:01:30;98315.00;;;3.35;50.62
20930;BME280;21895;47.072;15.132;2023-02-11T09:03:57;98311.00;;;3.39;50.81
20930;BME280;21895;47.072;15.132;2023-02-11T09:06:26;98309.00;;;3.61;50.46
20930;BME280;21895;47.072;15.132;2023-02-11T09:08:55;98313.00;;;3.81;50.38
20930;BME280;21895;47.072;15.132;2023-02-11T09:11:31;98305.00;;;4.02;50.34
20930;BME280;21895;47.072;15.132;2023-02-11T09:14:00;98296.00;;;4.19;50.54
20930;BME280;21895;47.072;15.132;2023-02-11T09:16:30;98292.00;;;4.38;49.62
20930;BME280;21895;47.072;15.132;2023-02-11T09:18:58;98302.00;;;4.47;49.97
20930;BME280;21895;47.072;15.132;2023-02-11T09:21:26;98301.00;;;4.82;49.46
20930;BME280;21895;47.072;15.132;2023-02-11T09:23:53;98291.00;;;4.98;48.68
20930;BME280;21895;47.072;15.132;2023-02-11T09:26:33;98296.00;;;5.06;46.62
20930;BME280;21895;47.072;15.132;2023-02-11T09:29:01;98291.00;;;5.10;45.07
20930;BME280;21895;47.072;15.132;2023-02-11T09:31:30;98294.00;;;5.11;44.18
20930;BME280;21895;47.072;15.132;2023-02-11T09:34:04;98293.00;;;5.20;42.24
20930;BME280;21895;47.072;15.132;2023-02-11T09:36:36;98299.00;;;5.20;42.83
20930;BME280;21895;47.072;15.132;2023-02-11T09:39:06;98297.00;;;5.12;42.22
20930;BME280;21895;47.072;15.132;2023-02-11T09:44:27;98296.00;;;5.22;42.03
20930;BME280;21895;47.072;15.132;2023-02-11T09:47:01;98281.00;;;5.40;42.47
20930;BME280;21895;47.072;15.132;2023-02-11T09:49:44;98282.00;;;5.49;42.19
20930;BME280;21895;47.072;15.132;2023-02-11T09:53:06;98273.00;;;5.73;42.80
20930;BME280;21895;47.072;15.132;2023-02-11T09:55:43;98267.00;;;5.92;42.53
20930;BME280;21895;47.072;15.132;2023-02-11T09:58:26;98258.00;;;5.77;42.38
20930;BME280;21895;47.072;15.132;2023-02-11T10:08:01;98251.00;;;6.18;42.46
20930;BME280;21895;47.072;15.132;2023-02-11T10:11:00;98230.00;;;6.21;41.14
20930;BME280;21895;47.072;15.132;2023-02-11T10:16:03;98234.00;;;6.24;40.70
20930;BME280;21895;47.072;15.132;2023-02-11T10:24:37;98242.00;;;6.37;40.48
20930;BME280;21895;47.072;15.132;2023-02-11T10:27:19;98220.00;;;6.50;40.06
20930;BME280;21895;47.072;15.132;2023-02-11T10:29:56;98217.00;;;6.75;39.60
20930;BME280;21895;47.072;15.132;2023-02-11T10:34:19;98206.00;;;6.90;38.20
20930;BME280;21895;47.072;15.132;2023-02-11T10:36:46;98204.00;;;7.30;36.39
20930;BME280;21895;47.072;15.132;2023-02-11T10:39:26;98204.00;;;7.46;35.55
20930;BME280;21895;47.072;15.132;2023-02-11T10:42:11;98191.00;;;7.44;36.09
20930;BME280;21895;47.072;15.132;2023-02-11T10:44:57;98180.00;;;7.67;36.26
20930;BME280;21895;47.072;15.132;2023-02-11T10:47:31;98181.00;;;7.83;36.83
20930;BME280;21895;47.072;15.132;2023-02-11T10:50:22;98182.00;;;7.98;37.21
20930;BME280;21895;47.072;15.132;2023-02-11T10:52:49;98169.00;;;8.29;35.62
20930;BME280;21895;47.072;15.132;2023-02-11T10:55:23;98167.00;;;8.44;36.40
20930;BME280;21895;47.072;15.132;2023-02-11T10:57:58;98167.00;;;8.62;35.68
20930;BME280;21895;47.072;15.132;2023-02-11T11:00:50;98167.00;;;8.77;35.44
20930;BME280;21895;47.072;15.132;2023-02-11T11:03:25;98161.00;;;8.98;35.61
20930;BME280;21895;47.072;15.132;2023-02-11T11:05:57;98151.00;;;8.93;35.15
20930;BME280;21895;47.072;15.132;2023-02-11T11:08:49;98158.00;;;9.06;34.34
20930;BME280;21895;47.072;15.132;2023-02-11T11:11:22;98149.00;;;9.27;34.23
20930;BME280;21895;47.072;15.132;2023-02-11T11:13:59;98136.00;;;9.42;34.26
20930;BME280;21895;47.072;15.132;2023-02-11T11:16:31;98128.00;;;9.47;33.46
20930;BME280;21895;47.072;15.132;2023-02-11T11:22:48;98127.00;;;9.51;34.30
20930;BME280;21895;47.072;15.132;2023-02-11T11:25:27;98116.00;;;9.31;34.24
20930;BME280;21895;47.072;15.132;2023-02-11T11:27:58;98121.00;;;9.54;32.75
20930;BME280;21895;47.072;15.132;2023-02-11T11:30:41;98117.00;;;9.53;32.63
20930;BME280;21895;47.072;15.132;2023-02-11T11:33:36;98120.00;;;9.37;33.41
20930;BME280;21895;47.072;15.132;2023-02-11T11:36:16;98126.00;;;9.09;32.84
20930;BME280;21895;47.072;15.132;2023-02-11T11:38:57;98135.00;;;8.97;33.79
20930;BME280;21895;47.072;15.132;2023-02-11T11:41:33;98133.00;;;8.89;34.36
20930;BME280;21895;47.072;15.132;2023-02-11T11:44:37;98133.00;;;8.97;34.58
20930;BME280;21895;47.072;15.132;2023-02-11T11:48:41;98128.00;;;9.02;34.82
20930;BME280;21895;47.072;15.132;2023-02-11T11:51:12;98111.00;;;8.97;35.67
20930;BME280;21895;47.072;15.132;2023-02-11T11:53:57;98115.00;;;8.90;36.01
20930;BME280;21895;47.072;15.132;2023-02-11T11:56:33;98108.00;;;8.77;36.67
20930;BME280;21895;47.072;15.132;2023-02-11T11:59:11;98114.00;;;8.81;36.45
20930;BME280;21895;47.072;15.132;2023-02-11T12:08:41;98097.00;;;9.06;35.90
20930;BME280;21895;47.072;15.132;2023-02-11T12:22:10;98075.00;;;9.75;33.54
20930;BME280;21895;47.072;15.132;2023-02-11T12:25:05;98064.00;;;10.03;31.32
20930;BME280;21895;47.072;15.132;2023-02-11T12:28:21;98064.00;;;10.28;30.26
20930;BME280;21895;47.072;15.132;2023-02-11T12:40:18;98024.00;;;10.32;29.46
20930;BME280;21895;47.072;15.132;2023-02-11T12:43:49;98025.00;;;10.16;30.45
20930;BME280;21895;47.072;15.132;2023-02-11T12:54:29;98010.00;;;9.92;30.14
20930;BME280;21895;47.072;15.132;2023-02-11T12:57:12;98001.00;;;9.42;30.90
20930;BME280;21895;47.072;15.132;2023-02-11T13:00:16;97993.00;;;9.34;30.64
20930;BME280;21895;47.072;15.132;2023-02-11T13:03:10;98004.00;;;9.57;29.68
20930;BME280;21895;47.072;15.132;2023-02-11T13:05:46;97991.00;;;9.73;28.87
20930;BME280;21895;47.072;15.132;2023-02-11T13:08:37;97974.00;;;9.97;29.71
20930;BME280;21895;47.072;15.132;2023-02-11T13:11:10;97961.00;;;10.12;28.94
20930;BME280;21895;47.072;15.132;2023-02-11T13:13:59;97960.00;;;10.18;28.76
20930;BME280;21895;47.072;15.132;2023-02-11T13:18:12;97951.00;;;10.11;28.51
20930;BME280;21895;47.072;15.132;2023-02-11T13:20:53;97957.00;;;10.03;27.54
20930;BME280;21895;47.072;15.132;2023-02-11T13:32:04;97949.00;;;9.92;25.98
20930;BME280;21895;47.072;15.132;2023-02-11T13:38:28;97940.00;;;10.20;26.84
20930;BME280;21895;47.072;15.132;2023-02-11T13:41:31;97943.00;;;10.30;26.98
20930;BME280;21895;47.072;15.132;2023-02-11T13:44:22;97945.00;;;10.30;28.02
20930;BME280;21895;47.072;15.132;2023-02-11T13:47:31;97947.00;;;10.32;27.93
20930;BME280;21895;47.072;15.132;2023-02-11T13:49:59;97946.00;;;10.29;29.93
20930;BME280;21895;47.072;15.132;2023-02-11T13:52:32;97942.00;;;10.33;30.44
20930;BME280;21895;47.072;15.132;2023-02-11T13:55:33;97953.00;;;10.25;31.23
20930;BME280;21895;47.072;15.132;2023-02-11T13:58:38;97956.00;;;10.10;32.28
20930;BME280;21895;47.072;15.132;2023-02-11T14:02:32;97945.00;;;9.95;31.80
20930;BME280;21895;47.072;15.132;2023-02-11T14:05:31;97958.00;;;9.90;31.93
20930;BME280;21895;47.072;15.132;2023-02-11T14:08:27;97962.00;;;10.47;30.58
20930;BME280;21895;47.072;15.132;2023-02-11T14:17:56;97953.00;;;10.02;32.55
20930;BME280;21895;47.072;15.132;2023-02-11T14:20:40;97959.00;;;9.99;32.00
20930;BME280;21895;47.072;15.132;2023-02-11T14:23:23;97957.00;;;10.01;32.52
20930;BME280;21895;47.072;15.132;2023-02-11T14:26:21;97967.00;;;9.99;32.57
20930;BME280;21895;47.072;15.132;2023-02-11T14:29:11;97959.00;;;9.92;32.97
20930;BME280;21895;47.072;15.132;2023-02-11T14:33:19;97967.00;;;9.79;33.77
20930;BME280;21895;47.072;15.132;2023-02-11T14:37:33;97967.00;;;9.36;34.58
20930;BME280;21895;47.072;15.132;2023-02-11T14:41:25;97955.00;;;9.44;34.63
20930;BME280;21895;47.072;15.132;2023-02-11T14:44:00;97958.00;;;9.41;34.97
20930;BME280;21895;47.072;15.132;2023-02-11T14:46:30;97954.00;;;9.18;36.00
20930;BME280;21895;47.072;15.132;2023-02-11T14:49:02;97954.00;;;9.13;36.57
20930;BME280;21895;47.072;15.132;2023-02-11T14:51:35;97955.00;;;9.19;36.19
20930;BME280;21895;47.072;15.132;2023-02-11T14:54:21;97952.00;;;9.15;36.17
20930;BME280;21895;47.072;15.132;2023-02-11T14:57:14;97960.00;;;9.10;36.88
20930;BME280;21895;47.072;15.132;2023-02-11T15:00:05;97958.00;;;9.03;36.65
20930;BME280;21895;47.072;15.132;2023-02-11T15:02:39;97959.00;;;8.97;36.89
20930;BME280;21895;47.072;15.132;2023-02-11T15:05:24;97961.00;;;8.94;37.12
20930;BME280;21895;47.072;15.132;2023-02-11T15:08:03;97969.00;;;8.84;36.85
20930;BME280;21895;47.072;15.132;2023-02-11T15:10:40;97965.00;;;8.76;37.45
20930;BME280;21895;47.072;15.132;2023-02-11T15:13:18;97957.00;;;8.69;37.36
20930;BME280;21895;47.072;15.132;2023-02-11T15:15:47;97959.00;;;8.72;37.18
20930;BME280;21895;47.072;15.132;2023-02-11T15:18:22;97960.00;;;8.64;37.67
20930;BME280;21895;47.072;15.132;2023-02-11T15:20:52;97951.00;;;8.55;37.54